sensor_id;sensor_type;location;lat;lon;timestamp;pressure;altitude;pressure_sealevel;temperature;humidity
34241;BME280;20503;50.200;19.508;2023-02-28T00:01:20;102838.27;;;-1.14;86.52
34241;BME280;20503;50.200;19.508;2023-02-28T00:06:27;102835.39;;;-1.27;87.17
34241;BME280;20503;50.200;19.508;2023-02-28T00:11:35;102842.84;;;-1.32;87.04
34241;BME280;20503;50.200;19.508;2023-02-28T00:16:44;102843.88;;;-1.34;86.48
34241;BME280;20503;50.200;19.508;2023-02-28T00:21:50;102839.13;;;-1.46;85.40
34241;BME280;20503;50.200;19.508;2023-02-28T00:26:59;102839.78;;;-1.58;87.04
34241;BME280;20503;50.200;19.508;2023-02-28T00:32:06;102834.92;;;-1.67;86.26
34241;BME280;20503;50.200;19.508;2023-02-28T00:37:13;102841.47;;;-1.73;87.65
34241;BME280;20503;50.200;19.508;2023-02-28T00:42:21;102843.82;;;-1.84;90.63
34241;BME280;20503;50.200;19.508;2023-02-28T00:47:29;102843.75;;;-1.99;91.74
34241;BME280;20503;50.200;19.508;2023-02-28T00:52:36;102836.50;;;-1.97;92.51
34241;BME280;20503;50.200;19.508;2023-02-28T00:57:44;102845.48;;;-1.98;89.52
34241;BME280;20503;50.200;19.508;2023-02-28T01:02:52;102851.41;;;-1.91;96.50
34241;BME280;20503;50.200;19.508;2023-02-28T01:08:00;102845.25;;;-2.10;100.00
34241;BME280;20503;50.200;19.508;2023-02-28T01:13:07;102842.95;;;-2.18;100.00
34241;BME280;20503;50.200;19.508;2023-02-28T01:18:15;102849.89;;;-2.14;100.00
34241;BME280;20503;50.200;19.508;2023-02-28T01:23:23;102843.03;;;-2.02;100.00
34241;BME280;20503;50.200;19.508;2023-02-28T01:28:31;102833.36;;;-1.88;100.00
34241;BME280;20503;50.200;19.508;2023-02-28T01:33:39;102838.94;;;-1.92;100.00
34241;BME280;20503;50.200;19.508;2023-02-28T01:38:49;102832.96;;;-1.97;100.00
34241;BME280;20503;50.200;19.508;2023-02-28T01:43:57;102835.14;;;-1.88;100.00
34241;BME280;20503;50.200;19.508;2023-02-28T01:54:18;102829.95;;;-1.75;100.00
34241;BME280;20503;50.200;19.508;2023-02-28T01:59:27;102831.20;;;-1.65;100.00
34241;BME280;20503;50.200;19.508;2023-02-28T02:04:37;102823.84;;;-1.61;100.00
34241;BME280;20503;50.200;19.508;2023-02-28T02:09:42;102814.43;;;-1.53;100.00
34241;BME280;20503;50.200;19.508;2023-02-28T02:14:55;102816.10;;;-1.50;98.82
34241;BME280;20503;50.200;19.508;2023-02-28T02:41:03;102817.32;;;-2.06;100.00
34241;BME280;20503;50.200;19.508;2023-02-28T02:46:12;102804.13;;;-2.28;100.00
34241;BME280;20503;50.200;19.508;2023-02-28T02:51:21;102803.10;;;-2.42;100.00
34241;BME280;20503;50.200;19.508;2023-02-28T02:56:28;102802.55;;;-2.32;100.00
34241;BME280;20503;50.200;19.508;2023-02-28T03:01:36;102802.39;;;-2.29;100.00
34241;BME280;20503;50.200;19.508;2023-02-28T03:06:44;102804.04;;;-2.43;100.00
34241;BME280;20503;50.200;19.508;2023-02-28T03:11:46;102804.39;;;-2.68;100.00
34241;BME280;20503;50.200;19.508;2023-02-28T03:16:59;102797.52;;;-2.92;100.00
34241;BME280;20503;50.200;19.508;2023-02-28T03:32:41;102811.44;;;-3.21;100.00
34241;BME280;20503;50.200;19.508;2023-02-28T03:37:45;102817.41;;;-3.34;100.00
34241;BME280;20503;50.200;19.508;2023-02-28T03:42:51;102821.18;;;-3.38;100.00
34241;BME280;20503;50.200;19.508;2023-02-28T03:48:02;102819.73;;;-3.45;100.00
34241;BME280;20503;50.200;19.508;2023-02-28T03:53:35;102822.94;;;-3.57;100.00
34241;BME280;20503;50.200;19.508;2023-02-28T03:58:28;102822.29;;;-3.62;100.00
34241;BME280;20503;50.200;19.508;2023-02-28T04:03:32;102828.84;;;-3.69;100.00
34241;BME280;20503;50.200;19.508;2023-02-28T04:08:34;102824.54;;;-3.53;100.00
34241;BME280;20503;50.200;19.508;2023-02-28T04:13:36;102827.21;;;-3.53;100.00
34241;BME280;20503;50.200;19.508;2023-02-28T04:18:41;102823.30;;;-3.46;100.00
34241;BME280;20503;50.200;19.508;2023-02-28T04:23:43;102835.78;;;-3.65;100.00
34241;BME280;20503;50.200;19.508;2023-02-28T04:28:45;102847.24;;;-3.81;100.00
34241;BME280;20503;50.200;19.508;2023-02-28T04:33:46;102842.97;;;-3.85;100.00
34241;BME280;20503;50.200;19.508;2023-02-28T04:38:48;102856.71;;;-3.94;100.00
34241;BME280;20503;50.200;19.508;2023-02-28T04:43:54;102844.80;;;-4.07;100.00
34241;BME280;20503;50.200;19.508;2023-02-28T04:48:58;102857.77;;;-4.18;100.00
34241;BME280;20503;50.200;19.508;2023-02-28T04:54:04;102857.51;;;-4.34;100.00
34241;BME280;20503;50.200;19.508;2023-02-28T04:59:05;102855.55;;;-4.50;100.00
34241;BME280;20503;50.200;19.508;2023-02-28T05:04:09;102863.24;;;-4.64;100.00
34241;BME280;20503;50.200;19.508;2023-02-28T05:09:11;102859.05;;;-4.71;100.00
34241;BME280;20503;50.200;19.508;2023-02-28T05:14:15;102860.94;;;-4.52;100.00
34241;BME280;20503;50.200;19.508;2023-02-28T05:19:21;102872.07;;;-4.41;100.00
34241;BME280;20503;50.200;19.508;2023-02-28T05:24:30;102866.82;;;-4.22;100.00
34241;BME280;20503;50.200;19.508;2023-02-28T05:29:38;102872.84;;;-3.56;100.00
34241;BME280;20503;50.200;19.508;2023-02-28T05:34:47;102884.72;;;-3.23;100.00
34241;BME280;20503;50.200;19.508;2023-02-28T05:39:53;102884.96;;;-3.09;100.00
34241;BME280;20503;50.200;19.508;2023-02-28T05:45:01;102895.96;;;-2.97;100.00
34241;BME280;20503;50.200;19.508;2023-02-28T05:50:10;102901.26;;;-2.95;100.00
34241;BME280;20503;50.200;19.508;2023-02-28T05:55:18;102906.32;;;-2.89;100.00
34241;BME280;20503;50.200;19.508;2023-02-28T06:00:25;102914.06;;;-2.83;100.00
34241;BME280;20503;50.200;19.508;2023-02-28T06:05:33;102918.21;;;-2.76;100.00
34241;BME280;20503;50.200;19.508;2023-02-28T06:10:40;102924.07;;;-2.68;100.00
34241;BME280;20503;50.200;19.508;2023-02-28T06:15:49;102920.18;;;-2.61;100.00
34241;BME280;20503;50.200;19.508;2023-02-28T06:20:58;102920.52;;;-2.50;100.00
34241;BME280;20503;50.200;19.508;2023-02-28T06:26:05;102933.92;;;-2.32;100.00
34241;BME280;20503;50.200;19.508;2023-02-28T06:31:15;102934.70;;;-2.11;100.00
34241;BME280;20503;50.200;19.508;2023-02-28T06:36:21;102937.06;;;-1.70;100.00
34241;BME280;20503;50.200;19.508;2023-02-28T06:41:29;102924.89;;;-1.43;100.00
34241;BME280;20503;50.200;19.508;2023-02-28T06:46:39;102928.27;;;-1.23;100.00
34241;BME280;20503;50.200;19.508;2023-02-28T06:51:45;102939.75;;;-0.39;100.00
34241;BME280;20503;50.200;19.508;2023-02-28T06:56:52;102955.97;;;0.06;100.00
34241;BME280;20503;50.200;19.508;2023-02-28T07:02:00;102966.34;;;0.43;93.23
34241;BME280;20503;50.200;19.508;2023-02-28T07:07:08;102951.22;;;1.27;86.76
34241;BME280;20503;50.200;19.508;2023-02-28T07:12:16;102954.21;;;1.37;87.78
34241;BME280;20503;50.200;19.508;2023-02-28T07:17:23;102962.11;;;1.54;82.75
34241;BME280;20503;50.200;19.508;2023-02-28T07:22:31;102962.20;;;0.81;86.55
34241;BME280;20503;50.200;19.508;2023-02-28T07:27:38;102966.52;;;0.40;87.25
34241;BME280;20503;50.200;19.508;2023-02-28T07:32:46;102968.84;;;0.46;87.78
34241;BME280;20503;50.200;19.508;2023-02-28T07:37:54;102970.90;;;0.56;87.65
34241;BME280;20503;50.200;19.508;2023-02-28T07:43:02;102976.54;;;1.25;82.13
34241;BME280;20503;50.200;19.508;2023-02-28T07:48:08;102966.34;;;1.72;84.23
34241;BME280;20503;50.200;19.508;2023-02-28T07:53:16;102967.38;;;1.69;80.66
34241;BME280;20503;50.200;19.508;2023-02-28T07:58:25;102955.75;;;1.41;82.77
34241;BME280;20503;50.200;19.508;2023-02-28T08:03:31;102974.74;;;0.52;82.43
34241;BME280;20503;50.200;19.508;2023-02-28T08:08:40;102978.37;;;-0.09;88.39
34241;BME280;20503;50.200;19.508;2023-02-28T08:13:47;102960.30;;;-0.38;89.59
34241;BME280;20503;50.200;19.508;2023-02-28T08:18:55;102963.30;;;-0.59;90.91
34241;BME280;20503;50.200;19.508;2023-02-28T08:24:03;102974.80;;;-0.73;90.92
34241;BME280;20503;50.200;19.508;2023-02-28T08:29:10;102968.27;;;-0.52;89.82
34241;BME280;20503;50.200;19.508;2023-02-28T08:34:18;102961.09;;;-0.51;91.87
34241;BME280;20503;50.200;19.508;2023-02-28T08:39:26;102977.99;;;-0.34;92.42
34241;BME280;20503;50.200;19.508;2023-02-28T08:44:34;102980.31;;;0.49;88.25
34241;BME280;20503;50.200;19.508;2023-02-28T08:49:42;102983.59;;;0.54;86.39
34241;BME280;20503;50.200;19.508;2023-02-28T08:54:49;102980.04;;;0.54;85.62
34241;BME280;20503;50.200;19.508;2023-02-28T08:59:57;102981.07;;;0.81;84.30
34241;BME280;20503;50.200;19.508;2023-02-28T09:05:05;102987.29;;;0.38;84.22
34241;BME280;20503;50.200;19.508;2023-02-28T09:10:12;102992.15;;;0.16;85.39
34241;BME280;20503;50.200;19.508;2023-02-28T09:15:20;102983.48;;;0.11;86.00
34241;BME280;20503;50.200;19.508;2023-02-28T09:20:28;102986.33;;;0.39;84.66
34241;BME280;20503;50.200;19.508;2023-02-28T09:25:38;102981.59;;;0.58;84.01
34241;BME280;20503;50.200;19.508;2023-02-28T09:30:45;102979.99;;;0.24;83.55
34241;BME280;20503;50.200;19.508;2023-02-28T09:36:00;102980.45;;;0.62;82.97
34241;BME280;20503;50.200;19.508;2023-02-28T09:41:08;102969.14;;;1.42;81.89
34241;BME280;20503;50.200;19.508;2023-02-28T09:56:41;102986.09;;;1.58;74.82
34241;BME280;20503;50.200;19.508;2023-02-28T10:06:57;102980.02;;;2.23;75.93
34241;BME280;20503;50.200;19.508;2023-02-28T10:12:04;102997.24;;;2.34;73.89
34241;BME280;20503;50.200;19.508;2023-02-28T10:17:13;102988.04;;;1.42;76.63
34241;BME280;20503;50.200;19.508;2023-02-28T10:22:31;102984.36;;;2.11;76.31
34241;BME280;20503;50.200;19.508;2023-02-28T10:27:30;102973.61;;;2.89;73.32
34241;BME280;20503;50.200;19.508;2023-02-28T10:32:34;102961.52;;;3.20;71.53
34241;BME280;20503;50.200;19.508;2023-02-28T10:37:41;102958.16;;;2.91;69.03
34241;BME280;20503;50.200;19.508;2023-02-28T10:47:58;102957.27;;;3.65;67.03
34241;BME280;20503;50.200;19.508;2023-02-28T10:53:14;102955.47;;;2.52;72.96
34241;BME280;20503;50.200;19.508;2023-02-28T10:58:22;102939.98;;;3.43;70.70
34241;BME280;20503;50.200;19.508;2023-02-28T11:03:31;102935.11;;;3.48;68.93
34241;BME280;20503;50.200;19.508;2023-02-28T11:08:34;102934.57;;;3.31;71.51
34241;BME280;20503;50.200;19.508;2023-02-28T11:13:41;102932.96;;;3.41;67.68
34241;BME280;20503;50.200;19.508;2023-02-28T11:18:49;102937.34;;;4.02;65.48
34241;BME280;20503;50.200;19.508;2023-02-28T11:23:56;102923.29;;;4.44;68.70
34241;BME280;20503;50.200;19.508;2023-02-28T11:29:10;102928.61;;;3.86;67.92
34241;BME280;20503;50.200;19.508;2023-02-28T11:39:27;102905.01;;;3.40;71.50
34241;BME280;20503;50.200;19.508;2023-02-28T12:16:08;102882.51;;;2.65;68.33
34241;BME280;20503;50.200;19.508;2023-02-28T12:31:35;102887.29;;;3.72;69.28
34241;BME280;20503;50.200;19.508;2023-02-28T12:36:37;102883.38;;;3.03;69.00
34241;BME280;20503;50.200;19.508;2023-02-28T12:41:49;102879.31;;;2.97;74.42
34241;BME280;20503;50.200;19.508;2023-02-28T12:46:58;102882.74;;;2.74;71.32
34241;BME280;20503;50.200;19.508;2023-02-28T12:52:03;102889.50;;;2.42;73.29
34241;BME280;20503;50.200;19.508;2023-02-28T12:57:12;102875.41;;;2.89;72.80
34241;BME280;20503;50.200;19.508;2023-02-28T13:12:52;102874.61;;;2.49;72.56
34241;BME280;20503;50.200;19.508;2023-02-28T13:18:00;102873.65;;;2.50;71.43
34241;BME280;20503;50.200;19.508;2023-02-28T13:23:03;102872.05;;;2.73;72.11
34241;BME280;20503;50.200;19.508;2023-02-28T13:28:12;102865.82;;;2.33;74.33
34241;BME280;20503;50.200;19.508;2023-02-28T13:38:34;102859.92;;;3.03;72.77
34241;BME280;20503;50.200;19.508;2023-02-28T13:48:51;102864.98;;;2.06;72.94
34241;BME280;20503;50.200;19.508;2023-02-28T13:54:04;102848.42;;;2.37;73.88
34241;BME280;20503;50.200;19.508;2023-02-28T13:59:20;102838.73;;;2.60;73.96
34241;BME280;20503;50.200;19.508;2023-02-28T14:09:41;102839.06;;;2.93;71.36
34241;BME280;20503;50.200;19.508;2023-02-28T14:14:53;102824.88;;;2.89;73.65
34241;BME280;20503;50.200;19.508;2023-02-28T14:19:57;102832.05;;;2.65;72.43
34241;BME280;20503;50.200;19.508;2023-02-28T14:40:43;102830.93;;;2.68;74.52
34241;BME280;20503;50.200;19.508;2023-02-28T14:45:54;102827.25;;;2.31;75.09
34241;BME280;20503;50.200;19.508;2023-02-28T14:51:00;102830.34;;;2.25;74.91
34241;BME280;20503;50.200;19.508;2023-02-28T14:56:02;102819.75;;;2.22;75.47
34241;BME280;20503;50.200;19.508;2023-02-28T15:01:04;102832.20;;;2.25;75.26
34241;BME280;20503;50.200;19.508;2023-02-28T15:06:14;102828.47;;;2.13;75.57
34241;BME280;20503;50.200;19.508;2023-02-28T15:11:20;102823.27;;;1.98;76.51
34241;BME280;20503;50.200;19.508;2023-02-28T15:16:34;102827.52;;;1.88;76.16
34241;BME280;20503;50.200;19.508;2023-02-28T15:21:44;102827.77;;;1.97;76.87
34241;BME280;20503;50.200;19.508;2023-02-28T15:27:01;102827.60;;;2.00;76.64
34241;BME280;20503;50.200;19.508;2023-02-28T15:32:02;102831.16;;;1.75;75.37
34241;BME280;20503;50.200;19.508;2023-02-28T15:42:30;102825.05;;;1.59;75.57
34241;BME280;20503;50.200;19.508;2023-02-28T15:47:30;102829.02;;;1.53;76.28
34241;BME280;20503;50.200;19.508;2023-02-28T15:52:39;102826.16;;;1.42;77.47
34241;BME280;20503;50.200;19.508;2023-02-28T15:57:42;102826.34;;;1.39;78.04
34241;BME280;20503;50.200;19.508;2023-02-28T16:02:49;102818.60;;;1.21;79.26
34241;BME280;20503;50.200;19.508;2023-02-28T16:08:01;102819.85;;;1.15;80.35
34241;BME280;20503;50.200;19.508;2023-02-28T16:13:05;102814.11;;;0.93;81.58
34241;BME280;20503;50.200;19.508;2023-02-28T16:18:12;102823.03;;;0.80;82.48
34241;BME280;20503;50.200;19.508;2023-02-28T16:23:14;102816.02;;;0.63;83.66
34241;BME280;20503;50.200;19.508;2023-02-28T16:28:20;102830.36;;;0.50;84.96
34241;BME280;20503;50.200;19.508;2023-02-28T16:33:22;102825.71;;;0.38;86.15
34241;BME280;20503;50.200;19.508;2023-02-28T16:38:25;102833.75;;;0.24;87.69
34241;BME280;20503;50.200;19.508;2023-02-28T16:43:28;102835.17;;;0.15;88.33
34241;BME280;20503;50.200;19.508;2023-02-28T16:48:30;102837.09;;;0.13;89.24
34241;BME280;20503;50.200;19.508;2023-02-28T16:53:32;102842.42;;;-0.01;89.67
34241;BME280;20503;50.200;19.508;2023-02-28T16:58:33;102837.98;;;-0.02;90.29
34241;BME280;20503;50.200;19.508;2023-02-28T17:03:36;102841.54;;;-0.01;91.07
34241;BME280;20503;50.200;19.508;2023-02-28T17:08:38;102848.44;;;-0.11;92.03
34241;BME280;20503;50.200;19.508;2023-02-28T17:13:39;102849.70;;;-0.32;94.65
34241;BME280;20503;50.200;19.508;2023-02-28T17:18:40;102860.96;;;-0.41;96.94
34241;BME280;20503;50.200;19.508;2023-02-28T17:23:43;102854.55;;;-0.38;96.73
34241;BME280;20503;50.200;19.508;2023-02-28T17:28:45;102846.05;;;-0.46;100.00
34241;BME280;20503;50.200;19.508;2023-02-28T17:33:46;102848.56;;;-0.59;100.00
34241;BME280;20503;50.200;19.508;2023-02-28T17:38:48;102841.43;;;-0.75;100.00
34241;BME280;20503;50.200;19.508;2023-02-28T17:43:51;102833.73;;;-0.81;100.00
34241;BME280;20503;50.200;19.508;2023-02-28T17:48:53;102843.70;;;-0.83;100.00
34241;BME280;20503;50.200;19.508;2023-02-28T17:54:05;102837.72;;;-0.88;100.00
34241;BME280;20503;50.200;19.508;2023-02-28T17:59:15;102841.43;;;-1.06;100.00
34241;BME280;20503;50.200;19.508;2023-02-28T18:04:16;102847.05;;;-1.11;100.00
34241;BME280;20503;50.200;19.508;2023-02-28T18:09:20;102848.31;;;-1.18;100.00
34241;BME280;20503;50.200;19.508;2023-02-28T18:14:24;102844.16;;;-1.23;100.00
34241;BME280;20503;50.200;19.508;2023-02-28T18:22:41;102845.97;;;-1.24;100.00
34241;BME280;20503;50.200;19.508;2023-02-28T18:27:49;102850.56;;;-1.26;100.00
34241;BME280;20503;50.200;19.508;2023-02-28T18:33:00;102841.25;;;-1.36;100.00
34241;BME280;20503;50.200;19.508;2023-02-28T18:38:13;102843.40;;;-1.42;100.00
34241;BME280;20503;50.200;19.508;2023-02-28T18:43:15;102839.08;;;-1.45;100.00
34241;BME280;20503;50.200;19.508;2023-02-28T18:48:21;102841.59;;;-1.42;100.00
34241;BME280;20503;50.200;19.508;2023-02-28T18:53:29;102833.05;;;-1.50;100.00
34241;BME280;20503;50.200;19.508;2023-02-28T18:58:37;102831.66;;;-1.57;100.00
34241;BME280;20503;50.200;19.508;2023-02-28T19:03:46;102825.20;;;-1.70;100.00
34241;BME280;20503;50.200;19.508;2023-02-28T19:08:57;102829.84;;;-1.73;100.00
34241;BME280;20503;50.200;19.508;2023-02-28T19:14:02;102827.98;;;-1.71;100.00
34241;BME280;20503;50.200;19.508;2023-02-28T19:19:09;102810.62;;;-1.98;100.00
34241;BME280;20503;50.200;19.508;2023-02-28T19:24:17;102832.96;;;-1.81;100.00
34241;BME280;20503;50.200;19.508;2023-02-28T19:29:25;102841.47;;;-1.89;100.00
34241;BME280;20503;50.200;19.508;2023-02-28T19:34:32;102838.45;;;-2.00;100.00
34241;BME280;20503;50.200;19.508;2023-02-28T19:39:44;102842.48;;;-2.09;100.00
34241;BME280;20503;50.200;19.508;2023-02-28T19:44:48;102837.27;;;-2.12;100.00
34241;BME280;20503;50.200;19.508;2023-02-28T19:49:57;102835.13;;;-2.22;100.00
34241;BME280;20503;50.200;19.508;2023-02-28T19:55:05;102844.57;;;-2.32;100.00
34241;BME280;20503;50.200;19.508;2023-02-28T20:00:14;102832.44;;;-2.39;100.00
34241;BME280;20503;50.200;19.508;2023-02-28T20:05:21;102838.10;;;-2.45;100.00
34241;BME280;20503;50.200;19.508;2023-02-28T20:10:29;102833.97;;;-2.52;100.00
34241;BME280;20503;50.200;19.508;2023-02-28T20:15:38;102845.63;;;-2.53;100.00
34241;BME280;20503;50.200;19.508;2023-02-28T20:20:45;102849.63;;;-2.62;100.00
34241;BME280;20503;50.200;19.508;2023-02-28T20:25:57;102851.30;;;-2.59;100.00
34241;BME280;20503;50.200;19.508;2023-02-28T20:31:02;102854.19;;;-2.64;100.00
34241;BME280;20503;50.200;19.508;2023-02-28T20:36:10;102842.26;;;-2.75;100.00
34241;BME280;20503;50.200;19.508;2023-02-28T20:41:18;102836.39;;;-2.83;100.00
34241;BME280;20503;50.200;19.508;2023-02-28T20:46:27;102827.06;;;-2.93;100.00
34241;BME280;20503;50.200;19.508;2023-02-28T20:51:34;102835.38;;;-2.99;100.00
34241;BME280;20503;50.200;19.508;2023-02-28T20:56:42;102832.20;;;-3.07;100.00
34241;BME280;20503;50.200;19.508;2023-02-28T21:01:51;102830.09;;;-3.19;100.00
34241;BME280;20503;50.200;19.508;2023-02-28T21:06:58;102834.35;;;-3.15;100.00
34241;BME280;20503;50.200;19.508;2023-02-28T21:12:05;102823.94;;;-3.21;100.00
34241;BME280;20503;50.200;19.508;2023-02-28T21:17:12;102824.88;;;-3.22;100.00
34241;BME280;20503;50.200;19.508;2023-02-28T21:22:21;102816.84;;;-3.22;100.00
34241;BME280;20503;50.200;19.508;2023-02-28T21:27:29;102816.05;;;-3.24;100.00
34241;BME280;20503;50.200;19.508;2023-02-28T21:32:37;102816.11;;;-3.44;100.00
34241;BME280;20503;50.200;19.508;2023-02-28T21:37:46;102818.10;;;-3.49;100.00
34241;BME280;20503;50.200;19.508;2023-02-28T21:42:52;102820.27;;;-3.57;100.00
34241;BME280;20503;50.200;19.508;2023-02-28T21:48:00;102822.03;;;-3.76;100.00
34241;BME280;20503;50.200;19.508;2023-02-28T21:53:08;102824.63;;;-3.74;100.00
34241;BME280;20503;50.200;19.508;2023-02-28T21:58:16;102818.80;;;-3.84;100.00
34241;BME280;20503;50.200;19.508;2023-02-28T22:03:26;102816.78;;;-3.79;100.00
34241;BME280;20503;50.200;19.508;2023-02-28T22:08:32;102831.94;;;-3.78;100.00
34241;BME280;20503;50.200;19.508;2023-02-28T22:13:40;102827.58;;;-3.80;100.00
34241;BME280;20503;50.200;19.508;2023-02-28T22:18:49;102827.11;;;-3.90;100.00
34241;BME280;20503;50.200;19.508;2023-02-28T22:23:57;102822.62;;;-3.89;100.00
34241;BME280;20503;50.200;19.508;2023-02-28T22:29:05;102827.16;;;-3.91;100.00
34241;BME280;20503;50.200;19.508;2023-02-28T22:34:13;102834.05;;;-3.86;100.00
34241;BME280;20503;50.200;19.508;2023-02-28T22:39:20;102837.82;;;-3.90;100.00
34241;BME280;20503;50.200;19.508;2023-02-28T22:44:29;102852.36;;;-3.97;100.00
34241;BME280;20503;50.200;19.508;2023-02-28T22:49:36;102857.84;;;-4.00;100.00
34241;BME280;20503;50.200;19.508;2023-02-28T22:54:48;102858.85;;;-4.02;100.00
34241;BME280;20503;50.200;19.508;2023-02-28T22:59:52;102866.80;;;-4.01;100.00
34241;BME280;20503;50.200;19.508;2023-02-28T23:05:00;102855.16;;;-4.00;100.00
34241;BME280;20503;50.200;19.508;2023-02-28T23:10:13;102869.47;;;-4.01;100.00
34241;BME280;20503;50.200;19.508;2023-02-28T23:15:18;102872.87;;;-4.17;100.00
34241;BME280;20503;50.200;19.508;2023-02-28T23:20:26;102865.39;;;-4.31;100.00
34241;BME280;20503;50.200;19.508;2023-02-28T23:25:33;102856.25;;;-3.84;100.00
34241;BME280;20503;50.200;19.508;2023-02-28T23:30:41;102855.14;;;-2.65;100.00
34241;BME280;20503;50.200;19.508;2023-02-28T23:35:49;102853.55;;;-2.87;100.00
34241;BME280;20503;50.200;19.508;2023-02-28T23:40:57;102844.95;;;-2.75;100.00
34241;BME280;20503;50.200;19.508;2023-02-28T23:46:05;102853.03;;;-2.58;100.00
34241;BME280;20503;50.200;19.508;2023-02-28T23:51:18;102854.49;;;-2.88;100.00
34241;BME280;20503;50.200;19.508;2023-02-28T23:56:23;102860.23;;;-3.34;100.00
